createdAt,value
2022-12-24T00:00:04.837Z,75.20
2022-12-24T00:02:09.058Z,75.20
2022-12-24T00:04:10.857Z,75.20
2022-12-24T00:06:19.753Z,75.20
2022-12-24T00:08:21.498Z,75.10
2022-12-24T00:10:23.160Z,75.20
2022-12-24T00:12:25.029Z,75.30
2022-12-24T00:14:26.716Z,75.20
2022-12-24T00:16:28.437Z,75.20
2022-12-24T00:18:30.085Z,75.20
2022-12-24T00:20:31.817Z,75.20
2022-12-24T00:22:33.526Z,75.30
2022-12-24T00:24:35.181Z,75.30
2022-12-24T00:26:36.810Z,75.40
2022-12-24T00:28:38.739Z,75.40
2022-12-24T00:30:41.268Z,75.40
2022-12-24T00:32:42.945Z,75.40
2022-12-24T00:34:44.530Z,75.40
2022-12-24T00:36:46.179Z,75.30
2022-12-24T00:38:52.155Z,75.30
2022-12-24T00:40:58.304Z,75.30
2022-12-24T00:42:59.920Z,75.40
2022-12-24T00:45:01.569Z,75.40
2022-12-24T00:47:08.269Z,75.40
2022-12-24T00:49:13.612Z,75.40
2022-12-24T00:51:15.411Z,75.30
2022-12-24T00:53:17.381Z,75.30
2022-12-24T00:55:19.038Z,75.30
2022-12-24T00:57:20.687Z,75.30
2022-12-24T00:59:22.459Z,75.20
2022-12-24T01:01:24.880Z,76.00
2022-12-24T01:03:35.753Z,75.20
2022-12-24T01:05:37.466Z,75.20
2022-12-24T01:07:40.488Z,75.20
2022-12-24T01:09:42.174Z,75.20
2022-12-24T01:11:43.802Z,75.20
2022-12-24T01:13:45.444Z,75.10
2022-12-24T01:15:47.270Z,75.10
2022-12-24T01:17:48.896Z,74.90
2022-12-24T01:19:50.591Z,74.90
2022-12-24T01:21:53.033Z,74.80
2022-12-24T01:23:54.656Z,74.70
2022-12-24T01:26:00.355Z,74.80
2022-12-24T01:28:01.977Z,74.80
2022-12-24T01:30:04.911Z,74.70
2022-12-24T01:32:06.535Z,74.70
2022-12-24T01:34:08.162Z,74.50
2022-12-24T01:36:10.357Z,74.50
2022-12-24T01:38:12.306Z,74.50
2022-12-24T01:40:34.943Z,75.10
2022-12-24T01:42:57.249Z,74.10
2022-12-24T01:45:18.829Z,74.10
2022-12-24T01:47:22.181Z,74.00
2022-12-24T01:49:23.842Z,74.10
2022-12-24T01:51:35.709Z,74.20
2022-12-24T01:53:38.283Z,74.10
2022-12-24T01:55:40.423Z,74.00
2022-12-24T01:57:45.255Z,73.90
2022-12-24T01:59:49.489Z,73.80
2022-12-24T02:01:51.690Z,73.90
2022-12-24T02:03:53.451Z,74.00
2022-12-24T02:05:56.771Z,74.10
2022-12-24T02:07:59.616Z,74.10
2022-12-24T02:10:01.624Z,73.90
2022-12-24T02:12:04.951Z,73.90
2022-12-24T02:14:06.773Z,73.90
2022-12-24T02:16:19.024Z,73.90
2022-12-24T02:18:29.917Z,74.00
2022-12-24T02:20:50.354Z,73.80
2022-12-24T02:23:11.517Z,73.80
2022-12-24T02:25:16.011Z,73.80
2022-12-24T02:27:23.794Z,73.70
2022-12-24T02:29:28.513Z,73.80
2022-12-24T02:31:39.295Z,73.70
2022-12-24T02:33:47.399Z,74.00
2022-12-24T02:36:07.960Z,73.60
2022-12-24T02:38:09.604Z,73.70
2022-12-24T02:40:24.482Z,73.60
2022-12-24T02:42:29.856Z,73.80
2022-12-24T02:44:34.220Z,73.80
2022-12-24T02:46:36.232Z,73.80
2022-12-24T02:48:38.522Z,73.40
2022-12-24T02:50:40.241Z,73.50
2022-12-24T02:52:43.393Z,73.40
2022-12-24T02:54:45.236Z,73.40
2022-12-24T02:57:04.986Z,73.80
2022-12-24T02:59:12.544Z,73.50
2022-12-24T03:01:24.606Z,73.60
2022-12-24T03:03:35.516Z,73.70
2022-12-24T03:05:42.437Z,73.50
2022-12-24T03:07:48.574Z,73.60
2022-12-24T03:09:57.022Z,73.60
2022-12-24T03:12:01.308Z,73.50
2022-12-24T03:14:03.388Z,73.10
2022-12-24T03:16:06.992Z,73.30
2022-12-24T03:18:10.237Z,73.30
2022-12-24T03:20:12.869Z,73.50
2022-12-24T03:22:16.050Z,73.40
2022-12-24T03:24:17.742Z,73.30
2022-12-24T03:26:20.049Z,73.40
2022-12-24T03:28:24.731Z,73.40
2022-12-24T03:30:26.776Z,74.30
2022-12-24T03:32:30.347Z,73.40
2022-12-24T03:34:32.048Z,73.40
2022-12-24T03:36:33.630Z,73.40
2022-12-24T03:38:35.274Z,73.30
2022-12-24T03:40:36.966Z,73.50
2022-12-24T03:42:38.604Z,73.40
2022-12-24T03:44:40.355Z,73.60
2022-12-24T03:46:42.074Z,73.50
2022-12-24T03:48:43.713Z,73.60
2022-12-24T03:50:45.311Z,73.50
2022-12-24T03:52:46.997Z,73.70
2022-12-24T03:54:48.660Z,73.70
2022-12-24T03:56:50.387Z,73.70
2022-12-24T03:58:52.163Z,73.80
2022-12-24T04:00:54.016Z,73.70
2022-12-24T04:02:55.730Z,73.90
2022-12-24T04:04:57.502Z,73.80
2022-12-24T04:06:59.617Z,73.80
2022-12-24T04:09:04.882Z,73.80
2022-12-24T04:11:10.134Z,73.80
2022-12-24T04:13:11.896Z,74.00
2022-12-24T04:15:13.555Z,74.00
2022-12-24T04:17:15.229Z,74.10
2022-12-24T04:19:16.893Z,74.10
2022-12-24T04:21:18.987Z,74.10
2022-12-24T04:23:20.815Z,74.20
2022-12-24T04:25:22.441Z,74.10
2022-12-24T04:27:29.944Z,74.10
2022-12-24T04:29:32.361Z,74.20
2022-12-24T04:31:34.016Z,74.20
2022-12-24T04:33:35.969Z,74.20
2022-12-24T04:35:41.458Z,74.30
2022-12-24T04:37:43.076Z,74.40
2022-12-24T04:39:44.767Z,74.30
2022-12-24T04:41:46.474Z,74.30
2022-12-24T04:43:48.118Z,74.20
2022-12-24T04:45:49.791Z,74.30
2022-12-24T04:47:51.427Z,74.40
2022-12-24T04:49:53.346Z,74.40
2022-12-24T04:51:54.934Z,74.20
2022-12-24T04:53:56.645Z,74.30
2022-12-24T04:55:58.357Z,74.30
2022-12-24T04:58:00.047Z,74.40
2022-12-24T05:00:02.353Z,74.40
2022-12-24T05:02:04.115Z,74.40
2022-12-24T05:04:06.817Z,74.40
2022-12-24T05:06:10.762Z,74.40
2022-12-24T05:08:12.417Z,74.50
2022-12-24T05:10:14.035Z,74.50
2022-12-24T05:12:15.815Z,74.50
2022-12-24T05:14:17.501Z,74.50
2022-12-24T05:16:20.236Z,75.40
2022-12-24T05:18:22.164Z,74.70
2022-12-24T05:20:24.021Z,74.70
2022-12-24T05:22:44.230Z,74.80
2022-12-24T05:25:04.416Z,74.70
2022-12-24T05:27:06.084Z,74.80
2022-12-24T05:29:08.362Z,74.90
2022-12-24T05:31:10.030Z,74.80
2022-12-24T05:33:11.652Z,74.80
2022-12-24T05:35:13.909Z,74.80
2022-12-24T05:37:15.636Z,74.90
2022-12-24T05:39:18.252Z,74.80
2022-12-24T05:41:19.941Z,74.90
2022-12-24T05:43:21.673Z,74.90
2022-12-24T05:45:23.354Z,74.90
2022-12-24T05:47:24.957Z,74.90
2022-12-24T05:49:26.603Z,75.00
2022-12-24T05:51:28.252Z,75.10
2022-12-24T05:53:29.956Z,75.10
2022-12-24T05:55:31.743Z,75.00
2022-12-24T05:57:33.325Z,75.00
2022-12-24T05:59:35.194Z,75.00
2022-12-24T06:01:36.876Z,75.00
2022-12-24T06:03:38.572Z,75.00
2022-12-24T06:05:41.373Z,75.10
2022-12-24T06:07:43.042Z,75.10
2022-12-24T06:09:44.682Z,75.10
2022-12-24T06:11:46.315Z,75.10
2022-12-24T06:13:48.080Z,75.00
2022-12-24T06:15:49.873Z,75.00
2022-12-24T06:17:51.492Z,75.00
2022-12-24T06:19:53.157Z,74.90
2022-12-24T06:21:54.815Z,74.90
2022-12-24T06:23:56.465Z,74.90
2022-12-24T06:26:00.725Z,74.90
2022-12-24T06:28:02.390Z,74.90
2022-12-24T06:30:04.443Z,74.90
2022-12-24T06:32:06.250Z,74.90
2022-12-24T06:34:07.884Z,74.90
2022-12-24T06:36:16.659Z,74.90
2022-12-24T06:38:19.072Z,74.90
2022-12-24T06:40:20.696Z,74.70
2022-12-24T06:42:24.280Z,74.80
2022-12-24T06:44:26.420Z,74.80
2022-12-24T06:46:28.162Z,74.70
2022-12-24T06:48:30.043Z,74.80
2022-12-24T06:50:32.519Z,74.90
2022-12-24T06:52:34.168Z,74.80
2022-12-24T06:54:35.751Z,74.90
2022-12-24T06:56:37.395Z,75.00
2022-12-24T06:58:40.569Z,75.00
2022-12-24T07:00:42.209Z,75.00
2022-12-24T07:02:44.471Z,74.90
2022-12-24T07:04:46.328Z,74.90
2022-12-24T07:06:48.102Z,74.90
2022-12-24T07:08:49.748Z,74.90
2022-12-24T07:10:54.296Z,74.90
2022-12-24T07:12:56.225Z,74.90
2022-12-24T07:14:57.957Z,74.80
2022-12-24T07:16:59.853Z,74.90
2022-12-24T07:19:01.542Z,74.80
2022-12-24T07:21:04.639Z,74.80
2022-12-24T07:23:06.309Z,74.80
2022-12-24T07:25:08.234Z,74.90
2022-12-24T07:27:09.956Z,74.80
2022-12-24T07:29:11.597Z,74.70
2022-12-24T07:31:13.282Z,74.80
2022-12-24T07:33:14.963Z,74.80
2022-12-24T07:35:16.651Z,74.80
2022-12-24T07:37:18.316Z,74.80
2022-12-24T07:39:19.928Z,74.90
2022-12-24T07:41:21.596Z,75.00
2022-12-24T07:43:24.087Z,75.00
2022-12-24T07:45:25.823Z,74.90
2022-12-24T07:47:27.553Z,74.80
2022-12-24T07:49:29.384Z,74.90
2022-12-24T07:51:31.062Z,74.80
2022-12-24T07:53:32.852Z,74.90
2022-12-24T07:55:35.982Z,74.90
2022-12-24T07:57:37.629Z,74.90
2022-12-24T07:59:39.278Z,74.80
2022-12-24T08:01:41.303Z,74.80
2022-12-24T08:03:43.452Z,74.70
2022-12-24T08:05:45.620Z,74.70
2022-12-24T08:07:47.269Z,74.80
2022-12-24T08:09:48.925Z,74.80
2022-12-24T08:11:52.503Z,74.70
2022-12-24T08:13:54.433Z,74.80
2022-12-24T08:15:56.144Z,74.80
2022-12-24T08:17:57.879Z,74.80
2022-12-24T08:19:59.546Z,74.80
2022-12-24T08:22:01.199Z,74.70
2022-12-24T08:24:02.906Z,74.60
2022-12-24T08:26:06.806Z,74.60
2022-12-24T08:28:08.387Z,74.60
2022-12-24T08:30:11.303Z,74.70
2022-12-24T08:32:15.425Z,74.60
2022-12-24T08:34:17.088Z,74.70
2022-12-24T08:36:18.799Z,74.70
2022-12-24T08:38:20.476Z,74.70
2022-12-24T08:40:22.249Z,74.70
2022-12-24T08:42:23.973Z,74.60
2022-12-24T08:44:25.708Z,74.60
2022-12-24T08:46:27.369Z,74.40
2022-12-24T08:48:29.070Z,74.40
2022-12-24T08:50:30.698Z,74.50
2022-12-24T08:52:32.455Z,74.50
2022-12-24T08:54:34.084Z,74.60
2022-12-24T08:56:35.808Z,74.60
2022-12-24T08:58:37.469Z,74.50
2022-12-24T09:00:39.210Z,74.70
2022-12-24T09:02:41.044Z,74.70
2022-12-24T09:04:43.232Z,74.70
2022-12-24T09:06:44.931Z,74.70
2022-12-24T09:08:46.595Z,74.50
2022-12-24T09:10:48.285Z,74.70
2022-12-24T09:12:51.023Z,74.60
2022-12-24T09:14:58.152Z,74.50
2022-12-24T09:17:03.190Z,74.60
2022-12-24T09:19:04.914Z,74.40
2022-12-24T09:21:08.044Z,74.40
2022-12-24T09:23:09.757Z,74.60
2022-12-24T09:25:11.429Z,74.40
2022-12-24T09:27:13.243Z,74.40
2022-12-24T09:29:15.620Z,74.40
2022-12-24T09:31:17.751Z,74.40
2022-12-24T09:33:19.486Z,74.50
2022-12-24T09:35:21.259Z,74.40
2022-12-24T09:37:23.130Z,74.40
2022-12-24T09:39:24.762Z,74.40
2022-12-24T09:41:26.576Z,74.40
2022-12-24T09:43:31.133Z,74.50
2022-12-24T09:45:38.516Z,74.50
2022-12-24T09:47:51.345Z,74.40
2022-12-24T09:49:54.720Z,74.50
2022-12-24T09:52:00.214Z,74.50
2022-12-24T09:54:22.164Z,74.50
2022-12-24T09:56:26.023Z,74.40
2022-12-24T09:58:34.000Z,74.50
2022-12-24T10:00:36.984Z,74.60
2022-12-24T10:02:38.719Z,74.60
2022-12-24T10:04:41.494Z,74.60
2022-12-24T10:06:52.026Z,74.70
2022-12-24T10:08:56.500Z,74.70
2022-12-24T10:11:02.996Z,74.60
2022-12-24T10:13:09.911Z,74.60
2022-12-24T10:15:11.629Z,74.60
2022-12-24T10:17:19.161Z,74.60
2022-12-24T10:19:20.790Z,74.60
2022-12-24T10:21:48.828Z,74.70
2022-12-24T10:23:56.319Z,74.70
2022-12-24T10:26:18.278Z,74.60
2022-12-24T10:28:23.617Z,74.30
2022-12-24T10:30:25.428Z,74.20
2022-12-24T10:32:29.690Z,74.30
2022-12-24T10:34:33.678Z,74.30
2022-12-24T10:36:35.314Z,74.30
2022-12-24T10:38:37.126Z,74.10
2022-12-24T10:40:41.004Z,74.20
2022-12-24T10:42:51.138Z,74.10
2022-12-24T10:44:57.218Z,74.40
2022-12-24T10:46:59.669Z,74.10
2022-12-24T10:49:02.426Z,74.10
2022-12-24T10:51:06.238Z,74.00
2022-12-24T10:53:24.662Z,74.00
2022-12-24T10:55:28.137Z,73.90
2022-12-24T10:57:29.777Z,74.00
2022-12-24T10:59:51.339Z,73.90
2022-12-24T11:01:53.720Z,73.90
2022-12-24T11:04:02.133Z,73.70
2022-12-24T11:06:08.332Z,73.60
2022-12-24T11:08:12.779Z,73.70
2022-12-24T11:10:22.663Z,73.70
2022-12-24T11:12:31.055Z,73.70
2022-12-24T11:14:34.588Z,73.60
2022-12-24T11:16:36.748Z,73.50
2022-12-24T11:18:50.452Z,73.60
2022-12-24T11:20:53.243Z,73.60
2022-12-24T11:22:55.122Z,73.70
2022-12-24T11:25:08.318Z,73.50
2022-12-24T11:27:25.338Z,73.40
2022-12-24T11:29:28.274Z,73.20
2022-12-24T11:31:32.809Z,73.40
2022-12-24T11:33:46.195Z,73.40
2022-12-24T11:35:49.685Z,73.40
2022-12-24T11:38:00.440Z,73.40
2022-12-24T11:40:02.275Z,73.40
2022-12-24T11:42:04.032Z,73.40
2022-12-24T11:44:07.711Z,73.70
2022-12-24T11:46:36.482Z,73.70
2022-12-24T11:48:38.125Z,73.70
2022-12-24T11:50:39.793Z,73.50
2022-12-24T11:52:42.033Z,73.40
2022-12-24T11:55:02.404Z,73.70
2022-12-24T11:57:04.601Z,73.40
2022-12-24T11:59:12.504Z,73.40
2022-12-24T12:01:32.601Z,73.40
2022-12-24T12:03:42.770Z,73.40
2022-12-24T12:05:44.424Z,73.20
2022-12-24T12:07:47.916Z,73.40
2022-12-24T12:09:52.051Z,73.30
2022-12-24T12:11:56.814Z,73.20
2022-12-24T12:13:59.890Z,73.20
2022-12-24T12:16:20.648Z,73.10
2022-12-24T12:18:26.038Z,73.20
2022-12-24T12:20:32.768Z,73.10
2022-12-24T12:22:43.696Z,73.00
2022-12-24T12:24:49.047Z,73.20
2022-12-24T12:26:57.827Z,73.20
2022-12-24T12:28:59.501Z,73.10
2022-12-24T12:31:16.380Z,73.10
2022-12-24T12:33:18.599Z,73.30
2022-12-24T12:35:25.139Z,73.20
2022-12-24T12:37:38.167Z,73.20
2022-12-24T12:39:39.877Z,73.30
2022-12-24T12:41:47.608Z,73.40
2022-12-24T12:44:04.738Z,74.00
2022-12-24T12:46:06.451Z,73.50
2022-12-24T12:48:20.262Z,73.30
2022-12-24T12:50:40.588Z,73.30
2022-12-24T12:52:48.405Z,73.30
2022-12-24T12:55:11.509Z,73.30
2022-12-24T12:57:15.757Z,73.40
2022-12-24T12:59:26.213Z,73.40
2022-12-24T13:01:36.878Z,73.40
2022-12-24T13:03:50.823Z,73.30
2022-12-24T13:05:55.446Z,73.10
2022-12-24T13:08:16.036Z,73.10
2022-12-24T13:10:33.132Z,72.90
2022-12-24T13:12:40.957Z,72.90
2022-12-24T13:14:42.624Z,72.90
2022-12-24T13:16:53.220Z,73.00
2022-12-24T13:19:15.622Z,73.00
2022-12-24T13:21:21.482Z,72.90
2022-12-24T13:23:27.035Z,73.20
2022-12-24T13:25:37.038Z,73.00
2022-12-24T13:27:38.721Z,73.00
2022-12-24T13:29:53.449Z,73.00
2022-12-24T13:32:15.108Z,73.00
2022-12-24T13:34:35.422Z,73.20
2022-12-24T13:36:56.446Z,73.20
2022-12-24T13:38:58.475Z,73.10
2022-12-24T13:41:20.107Z,73.10
2022-12-24T13:43:21.837Z,73.00
2022-12-24T13:45:29.920Z,73.00
2022-12-24T13:47:32.818Z,73.20
2022-12-24T13:49:39.090Z,73.10
2022-12-24T13:51:40.774Z,73.10
2022-12-24T13:53:43.685Z,73.10
2022-12-24T13:55:56.140Z,73.10
2022-12-24T13:58:05.232Z,73.10
2022-12-24T14:00:12.914Z,73.10
2022-12-24T14:02:21.808Z,73.20
2022-12-24T14:04:28.610Z,73.10
2022-12-24T14:06:31.730Z,73.10
2022-12-24T14:08:35.341Z,73.20
2022-12-24T14:10:39.508Z,73.20
2022-12-24T14:12:48.995Z,73.10
2022-12-24T14:14:50.752Z,73.20
2022-12-24T14:16:52.894Z,73.20
2022-12-24T14:18:59.926Z,73.30
2022-12-24T14:21:02.176Z,73.40
2022-12-24T14:23:05.745Z,73.40
2022-12-24T14:25:16.522Z,73.30
2022-12-24T14:27:24.010Z,73.40
2022-12-24T14:29:31.383Z,73.40
2022-12-24T14:31:33.380Z,73.50
2022-12-24T14:33:35.329Z,73.50
2022-12-24T14:35:38.174Z,73.50
2022-12-24T14:37:46.160Z,73.50
2022-12-24T14:39:49.272Z,73.60
2022-12-24T14:42:00.031Z,73.70
2022-12-24T14:44:23.387Z,73.70
2022-12-24T14:47:01.668Z,73.70
2022-12-24T14:49:21.767Z,73.70
2022-12-24T14:51:38.499Z,73.80
2022-12-24T14:53:48.560Z,73.80
2022-12-24T14:55:50.639Z,73.80
2022-12-24T14:58:12.277Z,73.80
2022-12-24T15:00:19.144Z,73.70
2022-12-24T15:02:39.527Z,73.70
2022-12-24T15:04:41.317Z,73.70
2022-12-24T15:06:47.737Z,73.60
2022-12-24T15:08:49.969Z,73.60
2022-12-24T15:10:53.154Z,73.60
2022-12-24T15:12:56.452Z,73.70
2022-12-24T15:14:58.238Z,73.80
2022-12-24T15:17:10.876Z,73.70
2022-12-24T15:19:32.860Z,73.60
2022-12-24T15:21:41.633Z,73.60
2022-12-24T15:23:51.432Z,73.60
2022-12-24T15:26:06.092Z,73.70
2022-12-24T15:28:16.408Z,73.70
2022-12-24T15:30:20.224Z,73.70
2022-12-24T15:32:22.256Z,73.70
2022-12-24T15:34:50.496Z,73.70
2022-12-24T15:36:52.367Z,73.80
2022-12-24T15:38:55.154Z,73.80
2022-12-24T15:40:57.423Z,73.80
2022-12-24T15:42:59.173Z,73.80
2022-12-24T15:45:06.565Z,73.90
2022-12-24T15:47:13.939Z,73.80
2022-12-24T15:49:16.483Z,73.90
2022-12-24T15:51:26.858Z,73.90
2022-12-24T15:53:30.849Z,73.80
2022-12-24T15:55:40.808Z,73.80
2022-12-24T15:57:42.489Z,73.80
2022-12-24T15:59:44.270Z,73.80
2022-12-24T16:01:46.953Z,73.80
2022-12-24T16:03:48.742Z,73.80
2022-12-24T16:06:03.631Z,73.70
2022-12-24T16:08:09.581Z,73.70
2022-12-24T16:10:23.174Z,73.70
2022-12-24T16:12:25.683Z,73.80
2022-12-24T16:14:27.733Z,73.80
2022-12-24T16:16:42.837Z,73.80
2022-12-24T16:18:55.455Z,73.80
2022-12-24T16:20:57.489Z,73.80
2022-12-24T16:22:59.254Z,73.80
2022-12-24T16:25:02.452Z,73.80
2022-12-24T16:27:14.701Z,73.80
2022-12-24T16:29:16.797Z,73.80
2022-12-24T16:31:19.798Z,73.80
2022-12-24T16:33:22.978Z,73.80
2022-12-24T16:35:28.517Z,73.80
2022-12-24T16:37:30.293Z,73.70
2022-12-24T16:39:33.149Z,73.80
2022-12-24T16:41:54.743Z,73.80
2022-12-24T16:43:56.416Z,73.80
2022-12-24T16:46:02.556Z,73.70
2022-12-24T16:48:06.282Z,73.80
2022-12-24T16:50:08.401Z,73.80
2022-12-24T16:52:22.069Z,73.80
2022-12-24T16:54:23.799Z,73.80
2022-12-24T16:56:25.416Z,73.90
2022-12-24T16:58:27.163Z,73.90
2022-12-24T17:00:28.841Z,73.90
2022-12-24T17:02:31.162Z,73.90
2022-12-24T17:04:34.026Z,73.90
2022-12-24T17:06:35.687Z,73.90
2022-12-24T17:08:37.510Z,73.90
2022-12-24T17:10:39.667Z,73.90
2022-12-24T17:12:41.770Z,73.80
2022-12-24T17:14:43.494Z,73.90
2022-12-24T17:16:45.115Z,73.80
2022-12-24T17:18:47.090Z,73.80
2022-12-24T17:20:56.896Z,73.80
2022-12-24T17:22:58.805Z,73.80
2022-12-24T17:25:00.536Z,73.80
2022-12-24T17:27:02.170Z,73.80
2022-12-24T17:29:05.200Z,73.80
2022-12-24T17:31:09.592Z,73.80
2022-12-24T17:33:14.862Z,73.80
2022-12-24T17:35:16.890Z,73.80
2022-12-24T17:37:18.571Z,73.70
2022-12-24T17:39:27.225Z,73.70
2022-12-24T17:41:29.593Z,73.80
2022-12-24T17:43:32.484Z,73.80
2022-12-24T17:45:34.141Z,73.80
2022-12-24T17:47:35.792Z,73.80
2022-12-24T17:49:37.443Z,73.80
2022-12-24T17:51:45.037Z,73.90
2022-12-24T17:53:47.507Z,73.80
2022-12-24T17:55:49.151Z,73.80
2022-12-24T17:57:50.782Z,73.80
2022-12-24T17:59:52.546Z,73.90
2022-12-24T18:01:54.265Z,73.90
2022-12-24T18:03:57.761Z,73.90
2022-12-24T18:06:06.813Z,73.90
2022-12-24T18:08:08.468Z,73.90
2022-12-24T18:10:10.339Z,73.90
2022-12-24T18:12:12.783Z,73.90
2022-12-24T18:14:15.224Z,73.90
2022-12-24T18:16:21.096Z,73.90
2022-12-24T18:18:22.843Z,74.00
2022-12-24T18:20:24.587Z,74.00
2022-12-24T18:22:26.221Z,74.00
2022-12-24T18:24:27.834Z,74.00
2022-12-24T18:26:30.204Z,74.10
2022-12-24T18:28:32.340Z,74.10
2022-12-24T18:30:33.978Z,74.10
2022-12-24T18:32:36.058Z,74.10
2022-12-24T18:34:37.692Z,74.10
2022-12-24T18:36:39.401Z,74.00
2022-12-24T18:38:41.170Z,74.00
2022-12-24T18:40:42.807Z,74.00
2022-12-24T18:42:44.439Z,74.00
2022-12-24T18:44:46.558Z,74.00
2022-12-24T18:46:48.281Z,74.00
2022-12-24T18:48:50.270Z,74.80
2022-12-24T18:50:56.380Z,74.00
2022-12-24T18:52:58.038Z,74.00
2022-12-24T18:54:59.722Z,74.00
2022-12-24T18:57:01.390Z,74.10
2022-12-24T18:59:03.275Z,74.10
2022-12-24T19:01:11.187Z,74.10
2022-12-24T19:03:16.366Z,74.10
2022-12-24T19:05:18.621Z,74.10
2022-12-24T19:07:20.269Z,74.10
2022-12-24T19:09:22.455Z,74.10
2022-12-24T19:11:24.193Z,74.10
2022-12-24T19:13:25.888Z,74.10
2022-12-24T19:15:33.898Z,74.20
2022-12-24T19:17:37.559Z,74.20
2022-12-24T19:19:39.279Z,74.20
2022-12-24T19:21:40.987Z,74.10
2022-12-24T19:23:43.246Z,74.10
2022-12-24T19:25:44.916Z,74.10
2022-12-24T19:27:46.545Z,74.20
2022-12-24T19:29:48.275Z,74.10
2022-12-24T19:31:49.977Z,74.10
2022-12-24T19:33:52.895Z,74.10
2022-12-24T19:35:54.615Z,74.20
2022-12-24T19:37:56.230Z,74.10
2022-12-24T19:39:58.035Z,74.10
2022-12-24T19:42:00.100Z,74.20
2022-12-24T19:44:02.075Z,74.20
2022-12-24T19:46:04.023Z,74.20
2022-12-24T19:48:06.039Z,74.20
2022-12-24T19:50:07.917Z,74.20
2022-12-24T19:52:09.560Z,74.20
2022-12-24T19:54:18.650Z,74.20
2022-12-24T19:56:21.682Z,74.20
2022-12-24T19:58:23.425Z,74.40
2022-12-24T20:00:25.225Z,74.30
2022-12-24T20:02:26.985Z,74.20
2022-12-24T20:04:28.840Z,74.30
2022-12-24T20:06:32.241Z,74.20
2022-12-24T20:08:34.339Z,74.30
2022-12-24T20:10:39.355Z,74.30
2022-12-24T20:12:41.028Z,74.20
2022-12-24T20:14:42.790Z,74.30
2022-12-24T20:16:44.471Z,74.20
2022-12-24T20:18:59.768Z,74.20
2022-12-24T20:21:02.408Z,74.20
2022-12-24T20:23:06.320Z,74.20
2022-12-24T20:25:08.182Z,74.20
2022-12-24T20:27:10.001Z,74.20
2022-12-24T20:29:11.923Z,74.20
2022-12-24T20:31:21.098Z,74.30
2022-12-24T20:33:23.419Z,74.20
2022-12-24T20:35:25.260Z,74.20
2022-12-24T20:37:26.926Z,74.40
2022-12-24T20:39:28.595Z,74.20
2022-12-24T20:41:30.522Z,74.30
2022-12-24T20:43:37.262Z,74.20
2022-12-24T20:45:48.030Z,74.30
2022-12-24T20:47:49.730Z,74.20
2022-12-24T20:49:51.408Z,74.40
2022-12-24T20:51:53.080Z,74.20
2022-12-24T20:53:56.015Z,74.30
2022-12-24T20:55:58.319Z,74.40
2022-12-24T20:58:00.124Z,74.30
2022-12-24T21:00:01.797Z,74.30
2022-12-24T21:02:03.686Z,74.40
2022-12-24T21:04:07.285Z,74.50
2022-12-24T21:06:08.974Z,74.40
2022-12-24T21:08:12.281Z,74.40
2022-12-24T21:10:14.944Z,74.40
2022-12-24T21:12:35.244Z,74.30
2022-12-24T21:14:36.946Z,74.40
2022-12-24T21:16:39.406Z,74.50
2022-12-24T21:18:41.173Z,74.40
2022-12-24T21:20:43.388Z,74.40
2022-12-24T21:22:45.031Z,74.40
2022-12-24T21:24:46.703Z,74.40
2022-12-24T21:26:48.405Z,74.40
2022-12-24T21:28:50.454Z,74.40
2022-12-24T21:30:52.391Z,74.40
2022-12-24T21:32:54.218Z,74.30
2022-12-24T21:34:55.866Z,74.30
2022-12-24T21:36:57.625Z,74.30
2022-12-24T21:38:59.390Z,74.30
2022-12-24T21:41:02.260Z,74.40
2022-12-24T21:43:04.164Z,74.40
2022-12-24T21:45:08.564Z,74.50
2022-12-24T21:47:11.032Z,74.40
2022-12-24T21:49:31.232Z,74.40
2022-12-24T21:51:32.906Z,74.30
2022-12-24T21:53:53.233Z,74.30
2022-12-24T21:55:54.841Z,74.30
2022-12-24T21:57:56.472Z,74.20
2022-12-24T22:00:21.293Z,74.20
2022-12-24T22:02:27.608Z,74.20
2022-12-24T22:04:30.845Z,74.20
2022-12-24T22:06:51.613Z,74.10
2022-12-24T22:09:11.780Z,74.10
2022-12-24T22:11:35.890Z,74.10
2022-12-24T22:13:37.656Z,74.00
2022-12-24T22:15:44.276Z,74.10
2022-12-24T22:17:46.037Z,73.90
2022-12-24T22:19:47.700Z,74.00
2022-12-24T22:21:49.475Z,73.90
2022-12-24T22:23:51.182Z,73.90
2022-12-24T22:25:53.189Z,74.00
2022-12-24T22:27:54.858Z,74.10
2022-12-24T22:29:56.524Z,74.10
2022-12-24T22:31:58.155Z,74.20
2022-12-24T22:34:00.065Z,74.30
2022-12-24T22:36:05.504Z,74.30
2022-12-24T22:38:10.455Z,74.30
2022-12-24T22:40:12.567Z,74.20
2022-12-24T22:42:14.244Z,74.20
2022-12-24T22:44:15.899Z,74.30
2022-12-24T22:46:17.831Z,74.30
2022-12-24T22:48:19.516Z,74.30
2022-12-24T22:50:21.303Z,74.40
2022-12-24T22:52:23.140Z,74.30
2022-12-24T22:54:25.050Z,74.20
2022-12-24T22:56:27.490Z,74.10
2022-12-24T22:58:29.242Z,74.10
2022-12-24T23:00:41.632Z,74.10
2022-12-24T23:02:43.436Z,74.10
2022-12-24T23:04:45.206Z,74.10
2022-12-24T23:06:46.855Z,74.20
2022-12-24T23:08:48.478Z,74.10
2022-12-24T23:10:50.408Z,74.10
2022-12-24T23:13:14.795Z,74.10
2022-12-24T23:15:17.052Z,74.00
2022-12-24T23:17:18.719Z,74.00
2022-12-24T23:19:20.387Z,74.00
2022-12-24T23:21:22.364Z,74.00
2022-12-24T23:23:24.037Z,74.00
2022-12-24T23:25:25.797Z,74.00
2022-12-24T23:27:27.436Z,74.00
2022-12-24T23:29:29.856Z,74.00
2022-12-24T23:31:31.609Z,74.00
2022-12-24T23:33:33.808Z,73.90
2022-12-24T23:35:35.420Z,74.00
2022-12-24T23:37:37.103Z,74.00
2022-12-24T23:39:38.704Z,74.00
2022-12-24T23:41:40.358Z,74.00
2022-12-24T23:43:42.042Z,74.00
2022-12-24T23:45:47.752Z,74.00
2022-12-24T23:47:49.477Z,74.00
2022-12-24T23:49:51.090Z,74.00
2022-12-24T23:51:52.714Z,74.00
2022-12-24T23:53:55.343Z,74.00
2022-12-24T23:55:57.013Z,74.00
2022-12-24T23:57:58.681Z,74.10
